Talin, Estonija

06:53 PM EET on januar 19, 2017 (GMT +0200)
Ulemiste | | Change Station

Viš 128 ft 59.41 °N, 24.83 °E | Updated 3 minutes ago

Overcast
Oblacno
36 °F
Feels Like 24 °F
N
21
Veter Spremenljivo Veter od Zahod

Danes
High -- | Low -- °F
--% Chance of Precip.
Yesterday
High -- | Low -- °F
Precip. -- v
Zračni tlak 29.95 v
Vidljivost 6.2 milje
Oblaki Oblacno 400 ft
Občutek zaradi vetra 24 °F
Rosišče 34 °F
Vlažnost 93%
Padavine 0.00 v
Snow Depth Not available.
8:57 AM 4:06 PM
Pojemajoča luna, 52% visible
METAR EETN 191650Z 26018KT 9999 OVC004 02/01 Q1014 R08/290195 NOSIG
Zračni tlak 29.95 v
Vidljivost 6.2 milje
Oblaki Oblacno 400 ft
Občutek zaradi vetra 24 °F
Rosišče 34 °F
Vlažnost 93%
Padavine 0.00 v
Snow Depth Not available.
8:57 AM 4:06 PM
Pojemajoča luna, 52% visible
METAR EETN 191650Z 26018KT 9999 OVC004 02/01 Q1014 R08/290195 NOSIG

Get Your Daily Forecast Email!

Thanks for signing up!

Be on the lookout for a verification email in your inbox.

You'll start receiving the daily forecast at 8 AM.

×

10-Day Weather Forecast

×

Almanac

Astronomija

Jan. 19, 2017 Rise Set
Actual Time
Civil Twilight
Nautical Twilight
Astronomical Twilight
Moon
Length Of Visible Light
Dolžina dneva
Tomorrow will be .
, % of the Moon is Illuminated

Današnji ekstremi

Country Highs Country Lows

Community

WunderPhotos

Upload Photos

1,962,540 photos uploaded!

WunderBlog® & News

Nearby

Air Quality

  Air Quality AQ Index Pollutant
Not available.

Snow Depth

Station Depth Višina

Earthquake Activity

City Distance Mag. Time & Date
Minimum magnitude displayed is 2.5.

Coastal Water Temperatures

Mesto Temperatura

Stations

Nearby Weather Stations

Station Location Temp Občutek zaradi vetra Rosišče Vlažnost Veter Precip. Viš Obnovljeno Type